sensor_id;sensor_type;location;lat;lon;timestamp;P1;P2;P0
73146;PMS7003;61345;48.922;2.244;2023-06-10T00:01:47;9.00;9.00;7.00
73146;PMS7003;61345;48.922;2.244;2023-06-10T00:04:16;12.00;11.00;7.00
73146;PMS7003;61345;48.922;2.244;2023-06-10T00:06:42;9.00;7.50;5.25
73146;PMS7003;61345;48.922;2.244;2023-06-10T00:09:08;10.75;8.75;7.00
73146;PMS7003;61345;48.922;2.244;2023-06-10T00:11:35;16.25;11.00;8.00
73146;PMS7003;61345;48.922;2.244;2023-06-10T00:14:01;10.50;9.00;7.00
73146;PMS7003;61345;48.922;2.244;2023-06-10T00:16:26;12.25;9.25;7.00
73146;PMS7003;61345;48.922;2.244;2023-06-10T00:18:51;15.67;12.33;9.33
73146;PMS7003;61345;48.922;2.244;2023-06-10T00:21:17;11.00;9.67;7.00
73146;PMS7003;61345;48.922;2.244;2023-06-10T00:23:42;11.25;10.50;8.00
73146;PMS7003;61345;48.922;2.244;2023-06-10T00:26:08;17.50;10.00;7.00
73146;PMS7003;61345;48.922;2.244;2023-06-10T00:28:33;11.33;8.00;7.00
73146;PMS7003;61345;48.922;2.244;2023-06-10T00:30:59;14.67;10.33;7.00
73146;PMS7003;61345;48.922;2.244;2023-06-10T00:33:24;14.25;11.00;8.00
73146;PMS7003;61345;48.922;2.244;2023-06-10T00:35:49;12.33;9.00;7.00
73146;PMS7003;61345;48.922;2.244;2023-06-10T00:38:14;11.00;9.00;6.25
73146;PMS7003;61345;48.922;2.244;2023-06-10T00:40:40;11.67;10.00;7.67
73146;PMS7003;61345;48.922;2.244;2023-06-10T00:43:08;14.00;9.25;7.25
73146;PMS7003;61345;48.922;2.244;2023-06-10T00:45:33;12.00;9.67;7.00
73146;PMS7003;61345;48.922;2.244;2023-06-10T00:47:59;12.25;8.25;6.00
73146;PMS7003;61345;48.922;2.244;2023-06-10T00:50:24;11.50;10.00;7.50
73146;PMS7003;61345;48.922;2.244;2023-06-10T00:52:50;13.25;7.75;5.75
73146;PMS7003;61345;48.922;2.244;2023-06-10T00:55:16;8.50;6.25;4.75
73146;PMS7003;61345;48.922;2.244;2023-06-10T00:57:42;5.00;4.25;4.00
73146;PMS7003;61345;48.922;2.244;2023-06-10T01:00:09;7.75;3.75;3.00
73146;PMS7003;61345;48.922;2.244;2023-06-10T01:02:35;4.00;2.25;2.00
73146;PMS7003;61345;48.922;2.244;2023-06-10T01:05:00;2.75;2.50;2.00
73146;PMS7003;61345;48.922;2.244;2023-06-10T01:07:32;6.00;3.00;2.00
73146;PMS7003;61345;48.922;2.244;2023-06-10T01:10:02;7.75;2.25;1.50
73146;PMS7003;61345;48.922;2.244;2023-06-10T01:14:55;3.00;3.00;2.00
73146;PMS7003;61345;48.922;2.244;2023-06-10T01:17:20;3.00;2.33;2.00
73146;PMS7003;61345;48.922;2.244;2023-06-10T01:19:53;5.00;3.25;2.25
73146;PMS7003;61345;48.922;2.244;2023-06-10T01:22:19;4.75;3.50;3.00
73146;PMS7003;61345;48.922;2.244;2023-06-10T01:24:45;4.25;2.75;2.00
73146;PMS7003;61345;48.922;2.244;2023-06-10T01:27:12;3.00;1.33;1.33
73146;PMS7003;61345;48.922;2.244;2023-06-10T01:29:40;5.25;2.75;2.75
73146;PMS7003;61345;48.922;2.244;2023-06-10T01:32:12;6.50;3.50;2.50
73146;PMS7003;61345;48.922;2.244;2023-06-10T01:34:40;6.25;3.00;2.00
73146;PMS7003;61345;48.922;2.244;2023-06-10T01:37:07;1.50;1.50;1.00
73146;PMS7003;61345;48.922;2.244;2023-06-10T01:39:33;4.00;4.00;2.00
73146;PMS7003;61345;48.922;2.244;2023-06-10T01:41:58;4.50;3.75;3.00
73146;PMS7003;61345;48.922;2.244;2023-06-10T01:44:24;3.75;3.00;2.00
73146;PMS7003;61345;48.922;2.244;2023-06-10T01:46:49;3.00;3.00;2.00
73146;PMS7003;61345;48.922;2.244;2023-06-10T01:49:15;4.00;4.00;3.00
73146;PMS7003;61345;48.922;2.244;2023-06-10T01:51:40;5.00;3.50;2.00
73146;PMS7003;61345;48.922;2.244;2023-06-10T01:54:05;3.75;3.00;2.25
73146;PMS7003;61345;48.922;2.244;2023-06-10T01:56:31;3.00;3.00;2.00
73146;PMS7003;61345;48.922;2.244;2023-06-10T01:58:56;5.00;3.00;2.00
73146;PMS7003;61345;48.922;2.244;2023-06-10T02:01:24;4.75;3.00;2.00
73146;PMS7003;61345;48.922;2.244;2023-06-10T02:03:49;2.00;2.00;1.25
73146;PMS7003;61345;48.922;2.244;2023-06-10T02:06:15;3.00;2.50;2.00
73146;PMS7003;61345;48.922;2.244;2023-06-10T02:08:40;2.00;2.00;1.00
73146;PMS7003;61345;48.922;2.244;2023-06-10T02:11:05;4.00;3.00;3.00
73146;PMS7003;61345;48.922;2.244;2023-06-10T02:13:32;6.75;4.00;3.00
73146;PMS7003;61345;48.922;2.244;2023-06-10T02:15:57;4.00;1.00;1.00
73146;PMS7003;61345;48.922;2.244;2023-06-10T02:18:22;4.00;2.67;1.33
73146;PMS7003;61345;48.922;2.244;2023-06-10T02:20:47;2.33;2.33;2.00
73146;PMS7003;61345;48.922;2.244;2023-06-10T02:23:12;7.00;4.00;2.00
73146;PMS7003;61345;48.922;2.244;2023-06-10T02:25:38;2.00;2.00;1.00
73146;PMS7003;61345;48.922;2.244;2023-06-10T02:28:03;3.67;2.00;1.67
73146;PMS7003;61345;48.922;2.244;2023-06-10T02:30:28;3.75;3.00;3.00
73146;PMS7003;61345;48.922;2.244;2023-06-10T02:32:53;5.33;3.00;2.00
73146;PMS7003;61345;48.922;2.244;2023-06-10T02:35:21;3.50;3.50;2.50
73146;PMS7003;61345;48.922;2.244;2023-06-10T02:37:47;4.50;2.00;2.00
73146;PMS7003;61345;48.922;2.244;2023-06-10T02:40:12;9.00;2.33;2.00
73146;PMS7003;61345;48.922;2.244;2023-06-10T02:42:38;2.75;1.75;1.00
73146;PMS7003;61345;48.922;2.244;2023-06-10T02:45:06;3.00;2.00;1.00
73146;PMS7003;61345;48.922;2.244;2023-06-10T02:47:35;2.50;2.25;2.25
73146;PMS7003;61345;48.922;2.244;2023-06-10T02:50:01;6.75;2.25;2.00
73146;PMS7003;61345;48.922;2.244;2023-06-10T02:52:26;5.00;3.00;2.00
73146;PMS7003;61345;48.922;2.244;2023-06-10T02:54:51;1.00;1.00;1.00
73146;PMS7003;61345;48.922;2.244;2023-06-10T02:57:16;4.00;3.00;2.00
73146;PMS7003;61345;48.922;2.244;2023-06-10T02:59:41;4.00;2.67;2.00
73146;PMS7003;61345;48.922;2.244;2023-06-10T03:02:07;4.50;2.50;2.00
73146;PMS7003;61345;48.922;2.244;2023-06-10T03:04:32;1.00;1.00;1.00
73146;PMS7003;61345;48.922;2.244;2023-06-10T03:06:58;2.25;2.25;2.00
73146;PMS7003;61345;48.922;2.244;2023-06-10T03:09:25;2.00;2.00;2.00
73146;PMS7003;61345;48.922;2.244;2023-06-10T03:11:50;4.00;2.00;2.00
73146;PMS7003;61345;48.922;2.244;2023-06-10T03:14:15;2.00;2.00;1.00
73146;PMS7003;61345;48.922;2.244;2023-06-10T03:16:41;2.50;2.00;1.00
73146;PMS7003;61345;48.922;2.244;2023-06-10T03:19:07;3.00;2.00;1.00
73146;PMS7003;61345;48.922;2.244;2023-06-10T03:21:33;5.00;1.50;1.00
73146;PMS7003;61345;48.922;2.244;2023-06-10T03:23:59;3.25;2.00;2.00
73146;PMS7003;61345;48.922;2.244;2023-06-10T03:26:24;5.33;2.33;1.67
73146;PMS7003;61345;48.922;2.244;2023-06-10T03:28:49;4.33;2.00;1.67
73146;PMS7003;61345;48.922;2.244;2023-06-10T03:31:17;3.00;2.00;2.00
73146;PMS7003;61345;48.922;2.244;2023-06-10T03:33:44;3.25;1.75;1.00
73146;PMS7003;61345;48.922;2.244;2023-06-10T03:36:10;4.00;4.00;3.00
73146;PMS7003;61345;48.922;2.244;2023-06-10T03:38:35;2.25;2.25;1.75
73146;PMS7003;61345;48.922;2.244;2023-06-10T03:41:01;4.75;1.50;1.00
73146;PMS7003;61345;48.922;2.244;2023-06-10T03:43:26;3.33;2.33;2.00
73146;PMS7003;61345;48.922;2.244;2023-06-10T03:45:52;3.00;2.00;1.50
73146;PMS7003;61345;48.922;2.244;2023-06-10T03:48:17;4.00;3.50;2.50
73146;PMS7003;61345;48.922;2.244;2023-06-10T03:50:43;4.25;4.00;2.25
73146;PMS7003;61345;48.922;2.244;2023-06-10T03:53:08;4.00;2.67;2.33
73146;PMS7003;61345;48.922;2.244;2023-06-10T03:55:33;2.50;2.50;2.00
73146;PMS7003;61345;48.922;2.244;2023-06-10T03:57:59;4.00;3.00;2.00
73146;PMS7003;61345;48.922;2.244;2023-06-10T04:00:24;4.00;3.00;2.00
73146;PMS7003;61345;48.922;2.244;2023-06-10T04:02:49;2.75;2.75;2.00
73146;PMS7003;61345;48.922;2.244;2023-06-10T04:05:16;3.50;2.00;1.00
73146;PMS7003;61345;48.922;2.244;2023-06-10T04:07:42;4.00;3.00;2.25
73146;PMS7003;61345;48.922;2.244;2023-06-10T04:10:09;2.75;2.75;2.00
73146;PMS7003;61345;48.922;2.244;2023-06-10T04:12:34;4.00;3.00;2.25
73146;PMS7003;61345;48.922;2.244;2023-06-10T04:15:00;2.75;2.75;2.00
73146;PMS7003;61345;48.922;2.244;2023-06-10T04:17:25;3.75;2.00;1.75
73146;PMS7003;61345;48.922;2.244;2023-06-10T04:19:50;3.00;0.00;0.00
73146;PMS7003;61345;48.922;2.244;2023-06-10T04:22:16;3.25;2.00;2.00
73146;PMS7003;61345;48.922;2.244;2023-06-10T04:24:41;2.50;2.50;1.75
73146;PMS7003;61345;48.922;2.244;2023-06-10T04:27:07;4.00;4.00;2.75
73146;PMS7003;61345;48.922;2.244;2023-06-10T04:29:32;3.00;2.00;2.00
73146;PMS7003;61345;48.922;2.244;2023-06-10T04:31:58;3.67;2.67;2.00
73146;PMS7003;61345;48.922;2.244;2023-06-10T04:34:23;3.67;2.67;2.00
73146;PMS7003;61345;48.922;2.244;2023-06-10T04:36:48;3.00;3.00;2.00
73146;PMS7003;61345;48.922;2.244;2023-06-10T04:39:13;3.00;2.00;2.00
73146;PMS7003;61345;48.922;2.244;2023-06-10T04:41:41;3.75;3.00;2.00
73146;PMS7003;61345;48.922;2.244;2023-06-10T04:44:07;3.25;2.25;2.00
73146;PMS7003;61345;48.922;2.244;2023-06-10T04:46:32;3.00;3.00;2.25
73146;PMS7003;61345;48.922;2.244;2023-06-10T04:48:58;4.50;2.00;1.25
73146;PMS7003;61345;48.922;2.244;2023-06-10T04:51:23;2.33;2.33;2.00
73146;PMS7003;61345;48.922;2.244;2023-06-10T04:53:48;3.33;2.00;1.67
73146;PMS7003;61345;48.922;2.244;2023-06-10T04:56:13;1.67;1.00;1.00
73146;PMS7003;61345;48.922;2.244;2023-06-10T04:58:40;1.00;1.00;1.00
73146;PMS7003;61345;48.922;2.244;2023-06-10T05:01:05;2.00;2.00;2.00
73146;PMS7003;61345;48.922;2.244;2023-06-10T05:03:30;4.67;1.00;1.00
73146;PMS7003;61345;48.922;2.244;2023-06-10T05:05:55;2.67;1.67;1.00
73146;PMS7003;61345;48.922;2.244;2023-06-10T05:08:21;2.67;2.00;1.00
73146;PMS7003;61345;48.922;2.244;2023-06-10T05:10:46;2.00;1.00;1.00
73146;PMS7003;61345;48.922;2.244;2023-06-10T05:13:11;3.33;3.00;1.33
73146;PMS7003;61345;48.922;2.244;2023-06-10T05:15:36;4.00;3.00;2.00
73146;PMS7003;61345;48.922;2.244;2023-06-10T05:18:02;2.75;2.00;1.00
73146;PMS7003;61345;48.922;2.244;2023-06-10T05:20:27;5.00;2.50;2.00
73146;PMS7003;61345;48.922;2.244;2023-06-10T05:22:54;3.00;2.00;2.00
73146;PMS7003;61345;48.922;2.244;2023-06-10T05:25:19;2.75;2.00;2.00
73146;PMS7003;61345;48.922;2.244;2023-06-10T05:27:44;2.67;1.00;1.00
73146;PMS7003;61345;48.922;2.244;2023-06-10T05:30:10;4.75;1.00;1.00
73146;PMS7003;61345;48.922;2.244;2023-06-10T05:32:35;1.00;1.00;1.00
73146;PMS7003;61345;48.922;2.244;2023-06-10T05:35:00;4.00;2.67;2.00
73146;PMS7003;61345;48.922;2.244;2023-06-10T05:37:26;3.75;2.00;2.00
73146;PMS7003;61345;48.922;2.244;2023-06-10T05:39:51;3.00;2.00;1.75
73146;PMS7003;61345;48.922;2.244;2023-06-10T05:42:17;2.50;1.00;1.00
73146;PMS7003;61345;48.922;2.244;2023-06-10T05:44:42;4.50;3.00;2.00
73146;PMS7003;61345;48.922;2.244;2023-06-10T05:47:07;5.00;2.00;1.67
73146;PMS7003;61345;48.922;2.244;2023-06-10T05:49:35;4.00;2.25;2.00
73146;PMS7003;61345;48.922;2.244;2023-06-10T05:52:00;7.33;1.67;1.67
73146;PMS7003;61345;48.922;2.244;2023-06-10T05:54:26;5.33;2.00;2.00
73146;PMS7003;61345;48.922;2.244;2023-06-10T05:56:52;4.00;3.00;2.00
73146;PMS7003;61345;48.922;2.244;2023-06-10T05:59:17;6.00;2.75;2.00
73146;PMS7003;61345;48.922;2.244;2023-06-10T06:01:42;2.00;2.00;2.00
73146;PMS7003;61345;48.922;2.244;2023-06-10T06:04:07;3.33;3.33;3.00
73146;PMS7003;61345;48.922;2.244;2023-06-10T06:06:32;3.00;3.00;2.00
73146;PMS7003;61345;48.922;2.244;2023-06-10T06:09:00;4.50;2.25;2.25
73146;PMS7003;61345;48.922;2.244;2023-06-10T06:11:25;2.67;2.33;2.00
73146;PMS7003;61345;48.922;2.244;2023-06-10T06:13:51;2.00;2.00;1.00
73146;PMS7003;61345;48.922;2.244;2023-06-10T06:16:16;4.25;3.00;2.00
73146;PMS7003;61345;48.922;2.244;2023-06-10T06:18:43;4.50;2.25;2.00
73146;PMS7003;61345;48.922;2.244;2023-06-10T06:21:08;3.33;3.33;2.00
73146;PMS7003;61345;48.922;2.244;2023-06-10T06:23:33;4.00;2.33;2.00
73146;PMS7003;61345;48.922;2.244;2023-06-10T06:25:58;6.67;3.00;2.67
73146;PMS7003;61345;48.922;2.244;2023-06-10T06:28:24;3.00;2.00;1.33
73146;PMS7003;61345;48.922;2.244;2023-06-10T06:30:53;6.00;4.00;3.00
73146;PMS7003;61345;48.922;2.244;2023-06-10T06:33:19;3.00;3.00;2.00
73146;PMS7003;61345;48.922;2.244;2023-06-10T06:35:44;4.75;3.00;2.00
73146;PMS7003;61345;48.922;2.244;2023-06-10T06:38:09;3.00;2.00;2.00
73146;PMS7003;61345;48.922;2.244;2023-06-10T06:40:34;2.00;2.00;2.00
73146;PMS7003;61345;48.922;2.244;2023-06-10T06:43:00;4.33;3.00;3.00
73146;PMS7003;61345;48.922;2.244;2023-06-10T06:45:25;4.00;3.67;3.00
73146;PMS7003;61345;48.922;2.244;2023-06-10T06:47:50;2.75;2.75;2.00
73146;PMS7003;61345;48.922;2.244;2023-06-10T06:50:16;4.00;2.00;2.00
73146;PMS7003;61345;48.922;2.244;2023-06-10T06:52:41;2.00;2.00;1.50
73146;PMS7003;61345;48.922;2.244;2023-06-10T06:55:07;3.00;3.00;2.00
73146;PMS7003;61345;48.922;2.244;2023-06-10T06:57:32;3.25;2.00;1.50
73146;PMS7003;61345;48.922;2.244;2023-06-10T06:59:57;3.67;2.00;1.00
73146;PMS7003;61345;48.922;2.244;2023-06-10T07:02:22;2.67;2.00;2.00
73146;PMS7003;61345;48.922;2.244;2023-06-10T07:04:48;4.00;2.75;2.00
73146;PMS7003;61345;48.922;2.244;2023-06-10T07:07:16;2.00;2.00;1.75
73146;PMS7003;61345;48.922;2.244;2023-06-10T07:09:41;3.67;3.00;2.00
73146;PMS7003;61345;48.922;2.244;2023-06-10T07:12:07;3.50;2.00;2.00
73146;PMS7003;61345;48.922;2.244;2023-06-10T07:14:32;1.25;1.00;1.00
73146;PMS7003;61345;48.922;2.244;2023-06-10T07:16:58;2.67;2.67;2.00
73146;PMS7003;61345;48.922;2.244;2023-06-10T07:19:23;1.75;1.75;1.50
73146;PMS7003;61345;48.922;2.244;2023-06-10T07:21:48;2.00;2.00;2.00
73146;PMS7003;61345;48.922;2.244;2023-06-10T07:24:13;2.00;2.00;1.00
73146;PMS7003;61345;48.922;2.244;2023-06-10T07:26:39;3.33;2.00;2.00
73146;PMS7003;61345;48.922;2.244;2023-06-10T07:29:04;3.33;2.00;1.00
73146;PMS7003;61345;48.922;2.244;2023-06-10T07:31:29;3.00;2.25;1.25
73146;PMS7003;61345;48.922;2.244;2023-06-10T07:33:54;4.50;2.50;1.50
73146;PMS7003;61345;48.922;2.244;2023-06-10T07:36:20;4.00;2.00;1.33
73146;PMS7003;61345;48.922;2.244;2023-06-10T07:38:45;2.00;2.00;1.67
73146;PMS7003;61345;48.922;2.244;2023-06-10T07:41:10;2.25;2.25;2.00
73146;PMS7003;61345;48.922;2.244;2023-06-10T07:43:36;1.00;1.00;1.00
73146;PMS7003;61345;48.922;2.244;2023-06-10T07:46:01;2.00;2.00;1.50
73146;PMS7003;61345;48.922;2.244;2023-06-10T07:48:26;2.00;2.00;2.00
73146;PMS7003;61345;48.922;2.244;2023-06-10T07:50:52;2.67;2.00;2.00
73146;PMS7003;61345;48.922;2.244;2023-06-10T07:53:17;2.00;2.00;2.00
73146;PMS7003;61345;48.922;2.244;2023-06-10T07:55:44;2.00;1.00;0.00
73146;PMS7003;61345;48.922;2.244;2023-06-10T07:58:10;3.25;2.00;1.50
73146;PMS7003;61345;48.922;2.244;2023-06-10T08:00:35;3.00;2.00;1.00
73146;PMS7003;61345;48.922;2.244;2023-06-10T08:03:00;2.00;1.25;1.00
73146;PMS7003;61345;48.922;2.244;2023-06-10T08:05:25;1.00;1.00;0.00
73146;PMS7003;61345;48.922;2.244;2023-06-10T08:07:51;2.00;2.00;1.75
73146;PMS7003;61345;48.922;2.244;2023-06-10T08:10:16;2.00;2.00;1.25
73146;PMS7003;61345;48.922;2.244;2023-06-10T08:12:41;2.00;1.00;1.00
73146;PMS7003;61345;48.922;2.244;2023-06-10T08:15:07;1.67;1.67;1.00
73146;PMS7003;61345;48.922;2.244;2023-06-10T08:17:32;5.75;4.00;2.75
73146;PMS7003;61345;48.922;2.244;2023-06-10T08:19:57;3.00;2.75;2.00
73146;PMS7003;61345;48.922;2.244;2023-06-10T08:22:23;3.00;3.00;2.00
73146;PMS7003;61345;48.922;2.244;2023-06-10T08:24:48;3.33;2.00;2.00
73146;PMS7003;61345;48.922;2.244;2023-06-10T08:27:13;4.33;2.00;2.00
73146;PMS7003;61345;48.922;2.244;2023-06-10T08:29:38;1.33;1.33;1.00
73146;PMS7003;61345;48.922;2.244;2023-06-10T08:32:04;1.00;1.00;1.00
73146;PMS7003;61345;48.922;2.244;2023-06-10T08:34:29;4.50;1.75;1.00
73146;PMS7003;61345;48.922;2.244;2023-06-10T08:36:54;3.33;2.33;2.00
73146;PMS7003;61345;48.922;2.244;2023-06-10T08:39:20;2.00;1.25;1.00
73146;PMS7003;61345;48.922;2.244;2023-06-10T08:41:57;3.75;1.50;1.50
73146;PMS7003;61345;48.922;2.244;2023-06-10T08:44:28;4.00;3.00;2.00
73146;PMS7003;61345;48.922;2.244;2023-06-10T08:46:54;3.25;2.00;2.00
73146;PMS7003;61345;48.922;2.244;2023-06-10T08:49:20;2.00;1.25;0.50
73146;PMS7003;61345;48.922;2.244;2023-06-10T08:51:54;2.25;2.25;2.00
73146;PMS7003;61345;48.922;2.244;2023-06-10T08:54:22;2.00;2.00;1.50
73146;PMS7003;61345;48.922;2.244;2023-06-10T08:56:50;2.00;2.00;1.00
73146;PMS7003;61345;48.922;2.244;2023-06-10T08:59:16;3.25;3.00;2.00
73146;PMS7003;61345;48.922;2.244;2023-06-10T09:01:41;1.75;1.00;1.00
73146;PMS7003;61345;48.922;2.244;2023-06-10T09:04:07;4.00;2.50;1.50
73146;PMS7003;61345;48.922;2.244;2023-06-10T09:06:32;3.33;2.00;2.00
73146;PMS7003;61345;48.922;2.244;2023-06-10T09:08:59;2.50;2.00;1.75
73146;PMS7003;61345;48.922;2.244;2023-06-10T09:11:24;1.75;0.50;0.25
73146;PMS7003;61345;48.922;2.244;2023-06-10T09:13:49;6.25;2.50;2.00
73146;PMS7003;61345;48.922;2.244;2023-06-10T09:16:15;2.33;0.33;0.33
73146;PMS7003;61345;48.922;2.244;2023-06-10T09:18:41;1.75;1.75;1.00
73146;PMS7003;61345;48.922;2.244;2023-06-10T09:21:06;3.00;2.00;1.75
73146;PMS7003;61345;48.922;2.244;2023-06-10T09:23:32;2.00;2.00;2.00
73146;PMS7003;61345;48.922;2.244;2023-06-10T09:25:57;2.50;2.25;1.25
73146;PMS7003;61345;48.922;2.244;2023-06-10T09:28:23;1.75;1.00;0.75
73146;PMS7003;61345;48.922;2.244;2023-06-10T09:30:48;3.50;2.75;1.75
73146;PMS7003;61345;48.922;2.244;2023-06-10T09:33:13;0.33;0.33;0.33
73146;PMS7003;61345;48.922;2.244;2023-06-10T09:35:46;3.75;2.25;2.00
73146;PMS7003;61345;48.922;2.244;2023-06-10T09:38:11;1.75;1.50;1.00
73146;PMS7003;61345;48.922;2.244;2023-06-10T09:40:47;2.25;1.25;0.75
73146;PMS7003;61345;48.922;2.244;2023-06-10T09:43:13;5.00;3.00;2.00
73146;PMS7003;61345;48.922;2.244;2023-06-10T09:45:39;1.00;1.00;0.50
73146;PMS7003;61345;48.922;2.244;2023-06-10T09:48:04;3.00;2.00;1.33
73146;PMS7003;61345;48.922;2.244;2023-06-10T09:50:32;1.00;1.00;1.00
73146;PMS7003;61345;48.922;2.244;2023-06-10T09:52:58;1.00;1.00;0.50
73146;PMS7003;61345;48.922;2.244;2023-06-10T09:55:23;0.00;0.00;0.00
73146;PMS7003;61345;48.922;2.244;2023-06-10T09:57:53;1.00;1.00;0.00
73146;PMS7003;61345;48.922;2.244;2023-06-10T10:00:19;3.75;1.00;1.00
73146;PMS7003;61345;48.922;2.244;2023-06-10T10:02:48;1.00;1.00;1.00
73146;PMS7003;61345;48.922;2.244;2023-06-10T10:05:14;2.25;1.00;1.00
73146;PMS7003;61345;48.922;2.244;2023-06-10T10:07:42;0.00;0.00;0.00
73146;PMS7003;61345;48.922;2.244;2023-06-10T10:10:08;2.75;0.00;0.00
73146;PMS7003;61345;48.922;2.244;2023-06-10T10:12:34;2.00;1.50;1.00
73146;PMS7003;61345;48.922;2.244;2023-06-10T10:15:00;0.25;0.00;0.00
73146;PMS7003;61345;48.922;2.244;2023-06-10T10:17:34;4.25;1.25;0.75
73146;PMS7003;61345;48.922;2.244;2023-06-10T10:20:03;1.00;1.00;0.50
73146;PMS7003;61345;48.922;2.244;2023-06-10T10:22:35;1.25;0.00;0.00
73146;PMS7003;61345;48.922;2.244;2023-06-10T10:25:02;3.25;0.00;0.00
73146;PMS7003;61345;48.922;2.244;2023-06-10T10:27:33;2.50;1.75;1.00
73146;PMS7003;61345;48.922;2.244;2023-06-10T10:29:59;3.75;1.00;0.00
73146;PMS7003;61345;48.922;2.244;2023-06-10T10:32:34;5.00;1.00;1.00
73146;PMS7003;61345;48.922;2.244;2023-06-10T10:37:25;2.67;0.33;0.00
73146;PMS7003;61345;48.922;2.244;2023-06-10T10:39:51;1.50;1.50;1.00
73146;PMS7003;61345;48.922;2.244;2023-06-10T10:42:16;4.00;1.00;0.50
73146;PMS7003;61345;48.922;2.244;2023-06-10T10:44:42;1.50;1.00;1.00
73146;PMS7003;61345;48.922;2.244;2023-06-10T10:47:08;3.75;1.50;1.00
73146;PMS7003;61345;48.922;2.244;2023-06-10T10:49:35;1.00;1.00;1.00
73146;PMS7003;61345;48.922;2.244;2023-06-10T10:52:01;5.50;4.00;2.00
73146;PMS7003;61345;48.922;2.244;2023-06-10T11:04:57;1.00;1.00;0.25
73146;PMS7003;61345;48.922;2.244;2023-06-10T11:07:24;4.00;1.25;1.00
73146;PMS7003;61345;48.922;2.244;2023-06-10T11:09:59;1.50;0.00;0.00
73146;PMS7003;61345;48.922;2.244;2023-06-10T11:12:25;1.50;1.50;1.00
73146;PMS7003;61345;48.922;2.244;2023-06-10T11:14:54;3.00;1.00;1.00
73146;PMS7003;61345;48.922;2.244;2023-06-10T11:17:22;4.00;1.75;1.25
73146;PMS7003;61345;48.922;2.244;2023-06-10T11:19:49;2.00;2.00;1.00
73146;PMS7003;61345;48.922;2.244;2023-06-10T11:22:16;1.33;1.33;1.00
73146;PMS7003;61345;48.922;2.244;2023-06-10T11:24:41;1.75;1.00;1.00
73146;PMS7003;61345;48.922;2.244;2023-06-10T11:27:17;1.67;1.67;1.33
73146;PMS7003;61345;48.922;2.244;2023-06-10T11:29:58;3.00;1.00;1.00
73146;PMS7003;61345;48.922;2.244;2023-06-10T11:32:42;1.75;1.00;0.00
73146;PMS7003;61345;48.922;2.244;2023-06-10T11:35:08;3.75;2.25;1.25
73146;PMS7003;61345;48.922;2.244;2023-06-10T11:37:33;0.75;0.75;0.25
73146;PMS7003;61345;48.922;2.244;2023-06-10T11:39:58;2.33;2.33;1.00
73146;PMS7003;61345;48.922;2.244;2023-06-10T11:42:23;0.50;0.50;0.00
73146;PMS7003;61345;48.922;2.244;2023-06-10T11:44:49;3.00;1.00;1.00
73146;PMS7003;61345;48.922;2.244;2023-06-10T11:47:15;1.75;1.75;1.00
73146;PMS7003;61345;48.922;2.244;2023-06-10T11:49:40;2.00;2.00;1.00
73146;PMS7003;61345;48.922;2.244;2023-06-10T11:52:06;2.00;1.00;0.00
73146;PMS7003;61345;48.922;2.244;2023-06-10T11:54:31;3.00;1.75;1.00
73146;PMS7003;61345;48.922;2.244;2023-06-10T11:56:57;2.33;2.00;1.00
73146;PMS7003;61345;48.922;2.244;2023-06-10T11:59:22;2.00;2.00;1.00
73146;PMS7003;61345;48.922;2.244;2023-06-10T12:01:52;3.00;1.75;1.75
73146;PMS7003;61345;48.922;2.244;2023-06-10T12:04:17;2.00;1.33;1.00
73146;PMS7003;61345;48.922;2.244;2023-06-10T12:06:47;3.75;1.75;1.50
73146;PMS7003;61345;48.922;2.244;2023-06-10T12:09:33;1.50;1.25;1.25
73146;PMS7003;61345;48.922;2.244;2023-06-10T12:11:59;1.75;1.75;0.25
73146;PMS7003;61345;48.922;2.244;2023-06-10T12:17:08;3.50;1.50;1.00
73146;PMS7003;61345;48.922;2.244;2023-06-10T12:19:38;4.33;2.00;2.00
73146;PMS7003;61345;48.922;2.244;2023-06-10T12:22:03;0.25;0.25;0.00
73146;PMS7003;61345;48.922;2.244;2023-06-10T12:24:28;2.50;1.00;0.25
73146;PMS7003;61345;48.922;2.244;2023-06-10T12:26:53;0.00;0.00;0.00
73146;PMS7003;61345;48.922;2.244;2023-06-10T12:29:21;1.25;1.25;1.00
73146;PMS7003;61345;48.922;2.244;2023-06-10T12:31:53;4.00;0.50;0.50
73146;PMS7003;61345;48.922;2.244;2023-06-10T12:34:18;3.00;3.00;1.25
73146;PMS7003;61345;48.922;2.244;2023-06-10T12:36:47;2.67;2.67;2.00
73146;PMS7003;61345;48.922;2.244;2023-06-10T12:39:13;1.00;1.00;1.00
73146;PMS7003;61345;48.922;2.244;2023-06-10T12:41:38;1.00;1.00;0.75
73146;PMS7003;61345;48.922;2.244;2023-06-10T12:44:04;3.00;2.50;1.75
73146;PMS7003;61345;48.922;2.244;2023-06-10T12:46:35;3.00;2.00;1.50
73146;PMS7003;61345;48.922;2.244;2023-06-10T12:49:00;3.00;0.50;0.00
73146;PMS7003;61345;48.922;2.244;2023-06-10T12:51:25;3.00;2.00;1.33
73146;PMS7003;61345;48.922;2.244;2023-06-10T12:53:51;4.33;1.00;0.00
73146;PMS7003;61345;48.922;2.244;2023-06-10T12:56:17;1.00;1.00;1.00
73146;PMS7003;61345;48.922;2.244;2023-06-10T12:58:42;2.67;2.00;1.00
73146;PMS7003;61345;48.922;2.244;2023-06-10T13:01:07;3.33;1.00;1.00
73146;PMS7003;61345;48.922;2.244;2023-06-10T13:03:32;2.00;1.00;1.00
73146;PMS7003;61345;48.922;2.244;2023-06-10T13:05:58;2.00;2.00;1.67
73146;PMS7003;61345;48.922;2.244;2023-06-10T13:08:23;2.00;2.00;1.00
73146;PMS7003;61345;48.922;2.244;2023-06-10T13:10:48;1.00;1.00;0.67
73146;PMS7003;61345;48.922;2.244;2023-06-10T13:13:13;1.00;1.00;1.00
73146;PMS7003;61345;48.922;2.244;2023-06-10T13:15:39;0.75;0.75;0.50
73146;PMS7003;61345;48.922;2.244;2023-06-10T13:18:05;1.25;1.25;1.00
73146;PMS7003;61345;48.922;2.244;2023-06-10T13:20:30;3.33;1.67;0.67
73146;PMS7003;61345;48.922;2.244;2023-06-10T13:22:56;1.50;1.00;1.00
73146;PMS7003;61345;48.922;2.244;2023-06-10T13:25:21;0.50;0.50;0.50
73146;PMS7003;61345;48.922;2.244;2023-06-10T13:27:46;2.67;2.00;1.67
73146;PMS7003;61345;48.922;2.244;2023-06-10T13:30:11;2.50;2.00;1.25
73146;PMS7003;61345;48.922;2.244;2023-06-10T13:32:37;1.00;1.00;0.25
73146;PMS7003;61345;48.922;2.244;2023-06-10T13:35:02;3.25;1.50;1.00
73146;PMS7003;61345;48.922;2.244;2023-06-10T13:37:28;3.50;1.25;1.00
73146;PMS7003;61345;48.922;2.244;2023-06-10T13:39:53;3.00;1.00;1.00
73146;PMS7003;61345;48.922;2.244;2023-06-10T13:42:18;1.00;1.00;0.67
73146;PMS7003;61345;48.922;2.244;2023-06-10T13:44:43;2.25;2.00;1.00
73146;PMS7003;61345;48.922;2.244;2023-06-10T13:47:09;1.00;1.00;1.00
73146;PMS7003;61345;48.922;2.244;2023-06-10T13:49:34;4.00;0.67;0.00
73146;PMS7003;61345;48.922;2.244;2023-06-10T13:51:59;1.75;1.25;1.00
73146;PMS7003;61345;48.922;2.244;2023-06-10T13:54:24;4.00;1.33;1.00
73146;PMS7003;61345;48.922;2.244;2023-06-10T13:56:50;4.50;1.75;1.00
73146;PMS7003;61345;48.922;2.244;2023-06-10T13:59:15;1.67;1.67;1.33
73146;PMS7003;61345;48.922;2.244;2023-06-10T14:01:40;2.33;2.00;2.00
73146;PMS7003;61345;48.922;2.244;2023-06-10T14:04:06;1.00;1.00;1.00
73146;PMS7003;61345;48.922;2.244;2023-06-10T14:06:31;2.25;2.00;1.50
73146;PMS7003;61345;48.922;2.244;2023-06-10T14:08:57;2.00;2.00;1.50
73146;PMS7003;61345;48.922;2.244;2023-06-10T14:11:22;1.33;1.00;1.00
73146;PMS7003;61345;48.922;2.244;2023-06-10T14:13:47;3.33;2.67;2.00
73146;PMS7003;61345;48.922;2.244;2023-06-10T14:16:13;3.75;2.00;1.75
73146;PMS7003;61345;48.922;2.244;2023-06-10T14:18:38;3.67;1.00;1.00
73146;PMS7003;61345;48.922;2.244;2023-06-10T14:21:03;1.00;1.00;0.75
73146;PMS7003;61345;48.922;2.244;2023-06-10T14:23:28;2.00;1.33;1.00
73146;PMS7003;61345;48.922;2.244;2023-06-10T14:25:54;1.00;1.00;1.00
73146;PMS7003;61345;48.922;2.244;2023-06-10T14:28:19;5.67;2.00;1.33
73146;PMS7003;61345;48.922;2.244;2023-06-10T14:30:44;5.00;2.33;1.00
73146;PMS7003;61345;48.922;2.244;2023-06-10T14:33:09;1.33;1.00;0.00